CheckWX is a tool to help pilots better visualize weather data.  It is not intended as a substitute for an official pre-flight weather briefing.

06:09:53 UTC

KSPI METAR
Abraham Lincoln Capital Airport
Springfield, Illinois, USA
Current

18 mins ago

KSPI 230552Z AUTO 26008KT 10SM SCT070 18/15 A2994 RMK AO2 SLP135 60001 T01830150 10244 20183 402720144 53005
Observed
Apr-23 @ 05:52 UTC
Wind
  • 260° at 8 KTS
Visibility
10 SM
Flight Rules
VFR
Cloud Levels
  • Scattered at 7,000' AGL
Temperature
18°C / 64°F
Dewpoint
15°C / 59°F
Humidity
83%
Altimeter
29.94" Hg
Pressure
1013.92 hPa
Previous

1 hour ago

KSPI 230452Z AUTO 24005KT 10SM FEW070 20/16 A2993 RMK AO2 SLP131 T02000161
Observed
Apr-23 @ 04:52 UTC
Wind
  • 240° at 5 KTS
Visibility
10 SM
Flight Rules
VFR
Cloud Levels
  • Few at 7,000' AGL
Temperature
20°C / 68°F
Dewpoint
16°C / 61°F
Humidity
78%
Altimeter
29.93" Hg
Pressure
1013.52 hPa
Previous

2 hours ago

KSPI 230352Z AUTO 18007KT 10SM BKN060 BKN080 BKN090 19/16 A2992 RMK AO2 SLP129 T01940156
Observed
Apr-23 @ 03:52 UTC
Wind
  • 180° at 7 KTS
Visibility
10 SM
Flight Rules
VFR
Cloud Levels
  • Broken at 6,000' AGL
  • Broken at 8,000' AGL
  • Broken at 9,000' AGL
Temperature
19°C / 66°F
Dewpoint
16°C / 61°F
Humidity
83%
Altimeter
29.92" Hg
Pressure
1013.22 hPa